createdAt,value
2019-05-26T00:01:36.526Z,31.50
2019-05-26T00:04:08.360Z,31.60
2019-05-26T00:06:40.675Z,31.70
2019-05-26T00:09:12.507Z,31.70
2019-05-26T00:11:44.586Z,31.70
2019-05-26T00:14:16.399Z,31.80
2019-05-26T00:16:48.514Z,32.10
2019-05-26T00:19:20.300Z,32.30
2019-05-26T00:21:52.159Z,32.50
2019-05-26T00:24:24.375Z,32.50
2019-05-26T00:26:56.578Z,32.60
2019-05-26T00:29:28.409Z,32.70
2019-05-26T00:32:01.580Z,32.70
2019-05-26T00:34:33.379Z,32.70
2019-05-26T00:37:05.455Z,32.60
2019-05-26T00:39:37.811Z,32.60
2019-05-26T00:42:10.248Z,32.60
2019-05-26T00:44:42.068Z,32.60
2019-05-26T00:47:13.975Z,32.50
2019-05-26T00:49:45.801Z,32.50
2019-05-26T00:52:17.945Z,32.50
2019-05-26T00:54:49.957Z,32.60
2019-05-26T00:57:21.802Z,32.70
2019-05-26T00:59:53.710Z,32.70
2019-05-26T01:02:25.503Z,32.70
2019-05-26T01:04:57.307Z,32.60
2019-05-26T01:07:30.288Z,32.60
2019-05-26T01:10:02.173Z,32.60
2019-05-26T01:12:34.109Z,32.60
2019-05-26T01:15:06.272Z,32.50
2019-05-26T01:17:38.516Z,32.50
2019-05-26T01:20:11.004Z,32.50
2019-05-26T01:22:42.971Z,32.50
2019-05-26T01:25:15.171Z,32.50
2019-05-26T01:27:47.156Z,32.40
2019-05-26T01:30:20.801Z,32.50
2019-05-26T01:32:52.862Z,32.40
2019-05-26T01:35:24.664Z,32.40
2019-05-26T01:37:56.478Z,32.40
2019-05-26T01:40:39.461Z,32.40
2019-05-26T01:43:12.270Z,32.40
2019-05-26T01:45:44.029Z,32.50
2019-05-26T01:48:16.120Z,32.40
2019-05-26T01:50:47.850Z,32.40
2019-05-26T01:53:19.931Z,32.40
2019-05-26T01:55:51.942Z,32.30
2019-05-26T01:58:23.956Z,32.30
2019-05-26T02:00:55.686Z,32.30
2019-05-26T02:03:27.785Z,32.30
2019-05-26T02:05:59.544Z,32.30
2019-05-26T02:08:39.290Z,32.30
2019-05-26T02:11:05.211Z,32.30
2019-05-26T02:13:37.022Z,32.30
2019-05-26T02:16:08.804Z,32.30
2019-05-26T02:18:40.893Z,32.30
2019-05-26T02:21:14.797Z,32.30
2019-05-26T02:23:46.254Z,32.30
2019-05-26T02:26:18.047Z,32.30
2019-05-26T02:28:51.310Z,32.30
2019-05-26T02:31:23.116Z,32.30
2019-05-26T02:33:54.910Z,32.20
2019-05-26T02:36:26.709Z,32.20
2019-05-26T02:39:02.552Z,32.30
2019-05-26T02:41:32.251Z,32.20
2019-05-26T02:44:04.000Z,32.10
2019-05-26T02:46:35.772Z,31.80
2019-05-26T02:49:07.942Z,31.80
2019-05-26T02:51:39.705Z,31.70
2019-05-26T02:54:11.983Z,31.60
2019-05-26T02:56:44.089Z,31.50
2019-05-26T02:59:16.215Z,31.40
2019-05-26T03:02:02.486Z,31.50
2019-05-26T03:04:23.011Z,31.50
2019-05-26T03:06:57.880Z,31.60
2019-05-26T03:09:31.845Z,31.60
2019-05-26T03:12:06.047Z,31.70
2019-05-26T03:14:42.657Z,31.80
2019-05-26T03:17:15.853Z,31.80
2019-05-26T03:19:52.096Z,31.80
2019-05-26T03:22:28.873Z,31.60
2019-05-26T03:25:04.464Z,31.50
2019-05-26T03:27:36.446Z,31.50
2019-05-26T03:30:08.821Z,31.40
2019-05-26T03:32:40.679Z,31.30
2019-05-26T03:35:12.971Z,31.30
2019-05-26T03:37:44.781Z,31.30
2019-05-26T03:40:16.922Z,31.30
2019-05-26T03:42:49.091Z,31.40
2019-05-26T03:45:45.011Z,31.40
2019-05-26T03:48:16.771Z,31.40
2019-05-26T03:50:48.844Z,31.30
2019-05-26T03:53:20.627Z,31.30
2019-05-26T03:55:52.433Z,31.30
2019-05-26T03:58:24.376Z,31.40
2019-05-26T04:00:56.389Z,31.30
2019-05-26T04:03:28.212Z,31.10
2019-05-26T04:06:00.208Z,31.20
2019-05-26T04:08:32.015Z,31.50
2019-05-26T04:11:04.035Z,31.70
2019-05-26T04:13:37.348Z,31.70
2019-05-26T04:16:09.620Z,31.60
2019-05-26T04:18:41.431Z,31.40
2019-05-26T04:21:14.653Z,31.40
2019-05-26T04:23:47.470Z,31.10
2019-05-26T04:26:19.364Z,30.90
2019-05-26T04:28:51.464Z,31.30
2019-05-26T04:31:23.532Z,31.60
2019-05-26T04:33:55.313Z,31.70
2019-05-26T04:36:27.187Z,31.40
2019-05-26T04:38:58.982Z,31.60
2019-05-26T04:41:30.992Z,31.70
2019-05-26T04:44:04.585Z,31.60
2019-05-26T04:46:36.648Z,31.90
2019-05-26T04:49:08.485Z,32.20
2019-05-26T04:51:40.475Z,32.20
2019-05-26T04:54:12.245Z,32.20
2019-05-26T04:56:44.122Z,32.10
2019-05-26T04:59:16.226Z,32.00
2019-05-26T05:01:49.689Z,32.10
2019-05-26T05:04:21.428Z,32.10
2019-05-26T05:06:53.476Z,32.40
2019-05-26T05:09:25.238Z,32.60
2019-05-26T05:11:57.303Z,32.70
2019-05-26T05:14:29.342Z,32.90
2019-05-26T05:17:01.206Z,32.90
2019-05-26T05:19:33.015Z,32.90
2019-05-26T05:22:04.961Z,32.40
2019-05-26T05:24:36.756Z,32.80
2019-05-26T05:27:08.782Z,32.60
2019-05-26T05:29:40.914Z,32.90
2019-05-26T05:32:12.733Z,32.60
2019-05-26T05:34:44.567Z,32.90
2019-05-26T05:37:16.680Z,33.00
2019-05-26T05:39:48.596Z,33.20
2019-05-26T05:42:20.776Z,33.10
2019-05-26T05:44:53.926Z,32.40
2019-05-26T05:47:26.073Z,32.50
2019-05-26T05:49:57.838Z,32.70
2019-05-26T05:52:29.845Z,33.00
2019-05-26T05:55:01.667Z,32.60
2019-05-26T05:57:33.675Z,32.10
2019-05-26T06:00:06.812Z,32.20
2019-05-26T06:02:38.836Z,32.60
2019-05-26T06:05:11.324Z,32.60
2019-05-26T06:07:44.602Z,32.40
2019-05-26T06:10:17.530Z,32.60
2019-05-26T06:12:49.651Z,32.60
2019-05-26T06:15:21.710Z,31.80
2019-05-26T06:17:53.503Z,32.00
2019-05-26T06:20:25.344Z,32.10
2019-05-26T06:22:57.199Z,31.60
2019-05-26T06:25:29.079Z,31.50
2019-05-26T06:28:01.201Z,31.30
2019-05-26T06:30:33.222Z,31.10
2019-05-26T06:33:05.262Z,30.60
2019-05-26T06:35:37.114Z,30.90
2019-05-26T06:38:09.300Z,31.50
2019-05-26T06:40:41.257Z,32.40
2019-05-26T06:43:13.097Z,33.00
2019-05-26T06:45:45.122Z,33.20
2019-05-26T06:48:17.119Z,32.80
2019-05-26T06:50:48.901Z,32.40
2019-05-26T06:53:20.988Z,32.30
2019-05-26T06:55:52.792Z,31.20
2019-05-26T06:58:25.009Z,31.00
2019-05-26T07:00:56.764Z,30.70
2019-05-26T07:03:28.834Z,30.90
2019-05-26T07:06:00.633Z,30.90
2019-05-26T07:08:32.416Z,31.00
2019-05-26T07:11:04.254Z,31.10
2019-05-26T07:13:36.149Z,31.00
2019-05-26T07:16:07.931Z,30.50
2019-05-26T07:18:40.103Z,31.00
2019-05-26T07:21:12.112Z,31.60
2019-05-26T07:23:44.461Z,32.00
2019-05-26T07:26:16.824Z,32.30
2019-05-26T07:28:49.412Z,31.10
2019-05-26T07:31:21.660Z,31.50
2019-05-26T07:33:53.568Z,32.50
2019-05-26T07:36:25.364Z,32.90
2019-05-26T07:38:57.554Z,33.10
2019-05-26T07:41:29.372Z,33.30
2019-05-26T07:44:01.483Z,33.30
2019-05-26T07:46:33.620Z,32.60
2019-05-26T07:49:05.610Z,32.50
2019-05-26T07:51:37.382Z,33.10
2019-05-26T07:54:24.611Z,33.10
2019-05-26T07:56:44.515Z,32.10
2019-05-26T07:59:16.443Z,32.90
2019-05-26T08:01:48.763Z,33.50
2019-05-26T08:04:21.097Z,34.00
2019-05-26T08:06:52.936Z,33.90
2019-05-26T08:09:25.713Z,34.00
2019-05-26T08:11:58.237Z,33.70
2019-05-26T08:14:30.251Z,33.90
2019-05-26T08:17:02.082Z,33.50
2019-05-26T08:19:34.188Z,33.30
2019-05-26T08:22:06.107Z,34.00
2019-05-26T08:24:38.027Z,33.10
2019-05-26T08:27:09.798Z,33.40
2019-05-26T08:29:41.864Z,32.80
2019-05-26T08:32:15.165Z,32.80
2019-05-26T08:34:47.513Z,32.40
2019-05-26T08:37:19.310Z,32.50
2019-05-26T08:39:51.339Z,33.50
2019-05-26T08:42:28.749Z,33.90
2019-05-26T08:44:57.450Z,33.50
2019-05-26T08:47:29.906Z,32.60
2019-05-26T08:50:02.058Z,33.40
2019-05-26T08:52:33.937Z,33.60
2019-05-26T08:55:06.102Z,33.60
2019-05-26T08:57:39.304Z,33.20
2019-05-26T09:00:13.296Z,33.50
2019-05-26T09:02:46.496Z,33.50
2019-05-26T09:05:19.186Z,33.80
2019-05-26T09:07:51.177Z,33.70
2019-05-26T09:10:23.838Z,33.80
2019-05-26T09:13:01.332Z,34.50
2019-05-26T09:15:30.107Z,33.80
2019-05-26T09:18:02.155Z,33.60
2019-05-26T09:20:34.076Z,33.20
2019-05-26T09:23:05.912Z,33.20
2019-05-26T09:25:38.058Z,32.00
2019-05-26T09:28:09.847Z,31.20
2019-05-26T09:30:41.860Z,31.30
2019-05-26T09:33:13.911Z,31.10
2019-05-26T09:35:45.950Z,31.70
2019-05-26T09:38:17.849Z,32.50
2019-05-26T09:40:49.933Z,33.10
2019-05-26T09:43:21.815Z,33.80
2019-05-26T09:45:53.859Z,34.60
2019-05-26T09:48:25.987Z,34.60
2019-05-26T09:50:58.221Z,34.80
2019-05-26T09:53:30.100Z,35.10
2019-05-26T09:56:02.307Z,35.40
2019-05-26T09:58:34.194Z,35.00
2019-05-26T10:01:06.172Z,35.50
2019-05-26T10:03:38.203Z,35.20
2019-05-26T10:06:10.308Z,35.50
2019-05-26T10:08:42.125Z,35.60
2019-05-26T10:11:13.973Z,36.10
2019-05-26T10:13:45.781Z,35.40
2019-05-26T10:16:17.936Z,34.30
2019-05-26T10:18:50.275Z,33.70
2019-05-26T10:21:22.490Z,32.60
2019-05-26T10:23:54.329Z,32.60
2019-05-26T10:26:26.288Z,32.70
2019-05-26T10:29:00.531Z,33.40
2019-05-26T10:31:31.938Z,34.00
2019-05-26T10:34:03.986Z,33.60
2019-05-26T10:36:36.428Z,33.70
2019-05-26T10:39:09.872Z,33.80
2019-05-26T10:41:41.896Z,34.00
2019-05-26T10:44:16.401Z,33.50
2019-05-26T10:46:48.579Z,32.80
2019-05-26T10:49:20.531Z,32.40
2019-05-26T10:51:52.470Z,32.30
2019-05-26T10:54:24.413Z,32.70
2019-05-26T10:56:56.453Z,32.20
2019-05-26T10:59:28.293Z,32.30
2019-05-26T11:02:00.341Z,32.40
2019-05-26T11:04:32.369Z,32.60
2019-05-26T11:07:04.868Z,33.50
2019-05-26T11:09:37.011Z,33.80
2019-05-26T11:12:09.282Z,34.30
2019-05-26T11:14:41.251Z,35.30
2019-05-26T11:17:14.184Z,35.80
2019-05-26T11:19:46.259Z,35.70
2019-05-26T11:22:18.407Z,35.70
2019-05-26T11:24:51.641Z,35.70
2019-05-26T11:27:23.469Z,36.10
2019-05-26T11:29:55.315Z,36.70
2019-05-26T11:32:27.411Z,36.20
2019-05-26T11:35:01.897Z,36.30
2019-05-26T11:37:33.259Z,36.90
2019-05-26T11:40:05.399Z,37.10
2019-05-26T11:42:38.560Z,37.50
2019-05-26T11:45:12.428Z,37.00
2019-05-26T11:47:44.808Z,37.00
2019-05-26T11:50:17.915Z,37.00
2019-05-26T11:52:49.886Z,37.30
2019-05-26T11:55:21.722Z,36.90
2019-05-26T11:57:53.673Z,36.20
2019-05-26T12:00:27.058Z,36.60
2019-05-26T12:03:00.587Z,37.20
2019-05-26T12:05:32.987Z,37.50
2019-05-26T12:08:04.843Z,36.80
2019-05-26T12:10:36.739Z,37.40
2019-05-26T12:13:08.668Z,37.70
2019-05-26T12:15:40.499Z,37.80
2019-05-26T12:18:12.479Z,37.50
2019-05-26T12:20:44.593Z,37.60
2019-05-26T12:23:16.709Z,37.80
2019-05-26T12:25:48.651Z,38.00
2019-05-26T12:28:20.482Z,38.20
2019-05-26T12:30:52.326Z,38.30
2019-05-26T12:33:24.759Z,37.50
2019-05-26T12:35:56.922Z,37.70
2019-05-26T12:38:28.893Z,37.70
2019-05-26T12:41:00.778Z,38.00
2019-05-26T12:43:33.156Z,37.20
2019-05-26T12:46:05.034Z,37.50
2019-05-26T12:48:37.572Z,38.20
2019-05-26T12:51:09.634Z,38.70
2019-05-26T12:53:41.634Z,38.90
2019-05-26T12:56:13.431Z,39.10
2019-05-26T12:58:45.264Z,39.30
2019-05-26T13:01:17.120Z,39.40
2019-05-26T13:03:48.933Z,39.10
2019-05-26T13:06:21.108Z,39.00
2019-05-26T13:08:53.043Z,39.40
2019-05-26T13:11:24.815Z,39.40
2019-05-26T13:13:56.695Z,39.80
2019-05-26T13:16:28.531Z,39.60
2019-05-26T13:19:00.739Z,39.90
2019-05-26T13:21:32.893Z,40.20
2019-05-26T13:24:06.491Z,40.70
2019-05-26T13:26:38.264Z,41.10
2019-05-26T13:29:10.339Z,41.10
2019-05-26T13:31:42.094Z,41.50
2019-05-26T13:34:14.242Z,41.80
2019-05-26T13:36:46.360Z,42.10
2019-05-26T13:39:18.325Z,42.00
2019-05-26T13:41:50.125Z,42.10
2019-05-26T13:44:22.103Z,42.10
2019-05-26T13:46:53.875Z,42.10
2019-05-26T13:49:25.770Z,42.00
2019-05-26T13:51:57.850Z,42.60
2019-05-26T13:54:30.750Z,42.30
2019-05-26T13:57:02.629Z,42.60
2019-05-26T13:59:34.502Z,43.00
2019-05-26T14:02:06.336Z,43.00
2019-05-26T14:04:38.323Z,43.30
2019-05-26T14:07:11.377Z,43.50
2019-05-26T14:09:43.389Z,43.50
2019-05-26T14:12:15.185Z,43.40
2019-05-26T14:14:47.199Z,43.50
2019-05-26T14:17:21.121Z,43.90
2019-05-26T14:19:54.592Z,44.00
2019-05-26T14:22:26.685Z,44.10
2019-05-26T14:24:58.861Z,44.20
2019-05-26T14:27:30.772Z,44.50
2019-05-26T14:30:02.876Z,44.60
2019-05-26T14:32:34.776Z,45.00
2019-05-26T14:35:07.421Z,44.50
2019-05-26T14:37:39.982Z,43.90
2019-05-26T14:40:12.470Z,43.50
2019-05-26T14:42:44.372Z,43.50
2019-05-26T14:45:16.734Z,43.70
2019-05-26T14:47:48.632Z,43.70
2019-05-26T14:50:21.249Z,43.40
2019-05-26T14:52:53.419Z,43.50
2019-05-26T14:55:26.925Z,43.10
2019-05-26T14:58:14.224Z,43.10
2019-05-26T15:00:32.784Z,43.30
2019-05-26T15:03:04.629Z,43.40
2019-05-26T15:05:36.601Z,42.80
2019-05-26T15:08:08.701Z,42.90
2019-05-26T15:10:40.998Z,43.30
2019-05-26T15:13:12.788Z,43.50
2019-05-26T15:15:44.887Z,43.30
2019-05-26T15:18:16.795Z,43.40
2019-05-26T15:20:48.914Z,43.40
2019-05-26T15:23:20.785Z,43.30
2019-05-26T15:25:53.088Z,43.30
2019-05-26T15:28:24.916Z,42.40
2019-05-26T15:30:56.798Z,42.00
2019-05-26T15:33:28.627Z,42.00
2019-05-26T15:36:00.931Z,42.20
2019-05-26T15:38:42.456Z,42.30
2019-05-26T15:41:06.730Z,42.30
2019-05-26T15:43:38.806Z,42.20
2019-05-26T15:46:24.320Z,41.90
2019-05-26T15:48:44.586Z,42.20
2019-05-26T15:51:17.792Z,42.30
2019-05-26T15:53:50.739Z,42.40
2019-05-26T15:56:22.584Z,42.40
2019-05-26T15:58:54.346Z,42.00
2019-05-26T16:01:26.584Z,42.10
2019-05-26T16:03:58.429Z,42.10
2019-05-26T16:06:30.720Z,42.00
2019-05-26T16:09:02.696Z,41.60
2019-05-26T16:11:35.315Z,41.90
2019-05-26T16:14:07.638Z,41.60
2019-05-26T16:16:41.571Z,41.40
2019-05-26T16:19:13.214Z,41.20
2019-05-26T16:21:45.167Z,41.10
2019-05-26T16:24:17.348Z,40.90
2019-05-26T16:26:49.285Z,41.30
2019-05-26T16:29:21.107Z,41.30
2019-05-26T16:46:39.173Z,41.00
2019-05-26T16:49:11.136Z,40.90
2019-05-26T16:51:43.225Z,41.40
2019-05-26T16:54:15.368Z,41.40
2019-05-26T16:56:47.528Z,41.30
2019-05-26T16:59:19.332Z,41.60
2019-05-26T17:01:51.662Z,41.40
2019-05-26T17:04:23.507Z,41.20
2019-05-26T17:06:55.681Z,41.10
2019-05-26T17:09:27.730Z,40.90
2019-05-26T17:11:59.823Z,40.80
2019-05-26T17:14:31.649Z,40.50
2019-05-26T17:17:14.190Z,40.50
2019-05-26T17:19:37.260Z,39.90
2019-05-26T17:22:09.095Z,39.60
2019-05-26T17:24:41.142Z,39.30
2019-05-26T17:27:13.150Z,39.10
2019-05-26T17:29:45.089Z,39.40
2019-05-26T17:32:17.264Z,39.40
2019-05-26T17:34:49.274Z,39.20
2019-05-26T17:37:21.442Z,39.30
2019-05-26T17:39:53.702Z,38.90
2019-05-26T17:42:25.756Z,39.00
2019-05-26T17:44:57.695Z,39.00
2019-05-26T17:47:30.995Z,39.00
2019-05-26T17:50:03.113Z,38.90
2019-05-26T17:52:35.353Z,38.90
2019-05-26T17:55:07.861Z,38.80
2019-05-26T17:57:40.018Z,38.80
2019-05-26T18:00:13.576Z,38.90
2019-05-26T18:02:45.750Z,39.00
2019-05-26T18:05:18.061Z,38.70
2019-05-26T18:07:50.208Z,38.70
2019-05-26T18:10:22.659Z,38.80
2019-05-26T18:12:54.839Z,38.70
2019-05-26T18:15:26.773Z,38.60
2019-05-26T18:17:59.505Z,38.60
2019-05-26T18:20:31.387Z,38.50
2019-05-26T18:23:03.726Z,38.50
2019-05-26T18:25:35.916Z,38.40
2019-05-26T18:28:08.165Z,38.50
2019-05-26T18:30:40.315Z,38.60
2019-05-26T18:33:12.212Z,38.60
2019-05-26T18:35:44.082Z,38.60
2019-05-26T18:38:16.241Z,38.50
2019-05-26T18:40:48.072Z,38.60
2019-05-26T18:43:20.161Z,38.60
2019-05-26T18:45:52.064Z,38.50
2019-05-26T18:48:24.055Z,38.40
2019-05-26T18:50:55.986Z,38.50
2019-05-26T18:53:29.876Z,38.40
2019-05-26T18:56:02.587Z,38.40
2019-05-26T18:58:34.925Z,38.30
2019-05-26T19:01:07.548Z,38.30
2019-05-26T19:03:40.957Z,38.20
2019-05-26T19:06:13.060Z,38.20
2019-05-26T19:08:46.110Z,38.10
2019-05-26T19:11:18.707Z,38.00
2019-05-26T19:13:51.118Z,37.90
2019-05-26T19:16:23.197Z,37.80
2019-05-26T19:18:55.791Z,37.80
2019-05-26T19:21:28.204Z,37.70
2019-05-26T19:24:00.568Z,37.60
2019-05-26T19:26:33.212Z,37.50
2019-05-26T19:29:05.434Z,37.50
2019-05-26T19:31:37.320Z,37.40
2019-05-26T19:34:09.380Z,37.30
2019-05-26T19:36:41.242Z,37.30
2019-05-26T19:39:13.328Z,37.20
2019-05-26T19:41:45.562Z,37.10
2019-05-26T19:44:17.568Z,37.10
2019-05-26T19:46:52.792Z,37.00
2019-05-26T19:49:23.399Z,37.00
2019-05-26T19:51:55.929Z,36.90
2019-05-26T19:54:28.136Z,36.90
2019-05-26T19:57:00.403Z,36.80
2019-05-26T19:59:32.563Z,36.70
2019-05-26T20:02:17.932Z,36.60
2019-05-26T20:04:38.250Z,36.60
2019-05-26T20:07:11.419Z,36.60
2019-05-26T20:09:44.055Z,36.60
2019-05-26T20:12:16.904Z,36.50
2019-05-26T20:14:49.283Z,36.40
2019-05-26T20:17:21.854Z,36.40
2019-05-26T20:19:54.659Z,36.40
2019-05-26T20:22:26.787Z,36.40
2019-05-26T20:24:59.117Z,36.40
2019-05-26T20:27:31.565Z,36.40
2019-05-26T20:30:03.931Z,36.40
2019-05-26T20:32:36.044Z,36.40
2019-05-26T20:35:09.814Z,36.30
2019-05-26T20:37:41.899Z,36.30
2019-05-26T20:40:15.219Z,36.20
2019-05-26T20:42:47.486Z,36.10
2019-05-26T20:45:20.225Z,36.10
2019-05-26T20:47:52.436Z,36.10
2019-05-26T20:50:29.619Z,36.00
2019-05-26T20:52:59.821Z,36.00
2019-05-26T20:55:32.494Z,36.00
2019-05-26T20:58:05.242Z,36.00
2019-05-26T21:00:37.773Z,36.10
2019-05-26T21:03:09.985Z,36.00
2019-05-26T21:05:43.838Z,36.00
2019-05-26T21:08:16.194Z,35.90
2019-05-26T21:10:48.351Z,35.90
2019-05-26T21:13:20.327Z,35.80
2019-05-26T21:15:52.238Z,35.80
2019-05-26T21:18:24.073Z,35.90
2019-05-26T21:20:56.126Z,35.80
2019-05-26T21:23:28.070Z,35.80
2019-05-26T21:26:00.232Z,35.90
2019-05-26T21:28:32.268Z,35.80
2019-05-26T21:31:04.466Z,35.90
2019-05-26T21:33:36.365Z,35.80
2019-05-26T21:36:08.284Z,35.80
2019-05-26T21:38:40.121Z,35.70
2019-05-26T21:41:13.365Z,35.70
2019-05-26T21:43:45.376Z,35.70
2019-05-26T21:46:17.365Z,35.70
2019-05-26T21:48:49.221Z,35.70
2019-05-26T21:51:21.321Z,35.70
2019-05-26T21:53:53.202Z,35.70
2019-05-26T21:56:25.323Z,35.70
2019-05-26T21:58:57.085Z,35.70
2019-05-26T22:01:29.413Z,35.70
2019-05-26T22:04:02.193Z,35.70
2019-05-26T22:06:35.254Z,35.50
2019-05-26T22:09:08.901Z,35.50
2019-05-26T22:11:41.089Z,35.50
2019-05-26T22:14:12.873Z,35.50
2019-05-26T22:16:44.927Z,35.40
2019-05-26T22:19:16.757Z,35.40
2019-05-26T22:21:48.949Z,35.40
2019-05-26T22:24:20.730Z,35.40
2019-05-26T22:26:52.743Z,35.40
2019-05-26T22:29:24.802Z,35.40
2019-05-26T22:31:56.803Z,35.50
2019-05-26T22:34:28.599Z,35.30
2019-05-26T22:37:00.603Z,35.30
2019-05-26T22:39:32.423Z,35.30
2019-05-26T22:42:04.371Z,35.30
2019-05-26T22:44:36.524Z,35.30
2019-05-26T22:47:08.392Z,35.30
2019-05-26T22:49:40.205Z,35.30
2019-05-26T22:52:12.323Z,35.30
2019-05-26T22:54:44.119Z,35.30
2019-05-26T22:57:16.134Z,35.30
2019-05-26T22:59:47.961Z,35.30
2019-05-26T23:02:20.091Z,35.30
2019-05-26T23:04:52.543Z,35.40
2019-05-26T23:07:24.534Z,35.30
2019-05-26T23:09:56.294Z,35.30
2019-05-26T23:12:28.233Z,35.40
2019-05-26T23:15:00.009Z,35.40
2019-05-26T23:17:31.862Z,35.40
2019-05-26T23:20:03.642Z,35.40
2019-05-26T23:22:35.684Z,35.40
2019-05-26T23:25:07.822Z,35.50
2019-05-26T23:27:39.802Z,35.50
2019-05-26T23:30:12.209Z,35.50
2019-05-26T23:32:44.310Z,35.40
2019-05-26T23:35:16.985Z,35.40
2019-05-26T23:37:50.331Z,35.40
2019-05-26T23:40:22.101Z,35.40
2019-05-26T23:42:53.989Z,35.50
2019-05-26T23:45:25.942Z,35.60
2019-05-26T23:47:58.071Z,35.50
2019-05-26T23:50:29.905Z,35.50
2019-05-26T23:53:01.932Z,35.40
2019-05-26T23:55:33.710Z,35.50
2019-05-26T23:58:05.718Z,35.50
